createdAt,value
2023-01-10T00:24:10.784Z,377.00
2023-01-10T02:10:09.055Z,353.00
2023-01-10T02:11:09.037Z,351.00
2023-01-10T02:13:08.999Z,348.00
2023-01-10T02:14:08.993Z,349.00
2023-01-10T02:15:08.975Z,351.00
2023-01-10T02:16:09.048Z,354.00
2023-01-10T02:17:08.933Z,354.00
2023-01-10T02:18:08.911Z,357.00
2023-01-10T02:19:08.900Z,355.00
2023-01-10T02:20:08.885Z,353.00
2023-01-10T02:21:08.857Z,353.00
2023-01-10T02:22:08.840Z,351.00
2023-01-10T02:23:08.824Z,349.00
2023-01-10T02:24:08.823Z,347.00
2023-01-10T02:25:08.801Z,347.00
2023-01-10T02:26:08.795Z,348.00
2023-01-10T02:27:08.761Z,350.00
2023-01-10T02:28:08.743Z,354.00
2023-01-10T02:29:08.747Z,356.00
2023-01-10T02:30:08.724Z,354.00
2023-01-10T02:31:08.708Z,356.00
2023-01-10T02:32:08.669Z,359.00
2023-01-10T02:33:08.662Z,360.00
2023-01-10T02:34:08.632Z,357.00
2023-01-10T02:35:08.627Z,357.00
2023-01-10T02:36:08.610Z,356.00
2023-01-10T02:37:08.598Z,355.00
2023-01-10T02:38:08.575Z,357.00
2023-01-10T02:39:08.558Z,360.00
2023-01-10T02:40:08.542Z,360.00
2023-01-10T02:41:08.531Z,357.00
2023-01-10T02:42:08.517Z,356.00
2023-01-10T02:43:08.499Z,357.00
2023-01-10T02:44:08.487Z,360.00
2023-01-10T02:45:08.475Z,359.00
2023-01-10T02:46:08.488Z,359.00
2023-01-10T02:47:08.437Z,357.00
2023-01-10T02:48:08.418Z,355.00
2023-01-10T02:49:08.408Z,355.00
2023-01-10T02:50:08.394Z,357.00
2023-01-10T02:51:08.379Z,354.00
2023-01-10T02:52:08.353Z,356.00
2023-01-10T02:53:08.351Z,356.00
2023-01-10T02:54:08.378Z,356.00
2023-01-10T02:55:08.312Z,355.00
2023-01-10T02:56:08.293Z,355.00
2023-01-10T02:57:08.269Z,355.00
2023-01-10T02:58:08.263Z,355.00
2023-01-10T02:59:08.246Z,353.00
2023-01-10T03:00:08.221Z,350.00
2023-01-10T03:01:08.241Z,351.00
2023-01-10T03:02:08.256Z,350.00
2023-01-10T03:03:08.191Z,348.00
2023-01-10T03:04:08.169Z,350.00
2023-01-10T03:05:08.189Z,351.00
2023-01-10T03:06:08.160Z,353.00
2023-01-10T03:07:08.134Z,352.00
2023-01-10T03:08:08.125Z,352.00
2023-01-10T03:09:08.118Z,349.00
2023-01-10T03:10:08.103Z,351.00
2023-01-10T03:11:08.096Z,350.00
2023-01-10T03:12:08.062Z,350.00
2023-01-10T03:13:08.049Z,348.00
2023-01-10T03:14:08.036Z,347.00
2023-01-10T03:15:08.036Z,344.00
2023-01-10T03:16:08.101Z,345.00
2023-01-10T03:17:08.028Z,344.00
2023-01-10T03:18:08.000Z,346.00
2023-01-10T03:19:07.981Z,347.00
2023-01-10T03:20:07.970Z,349.00
2023-01-10T03:21:07.950Z,348.00
2023-01-10T03:22:07.940Z,350.00
2023-01-10T03:23:07.919Z,352.00
2023-01-10T03:24:07.891Z,352.00
2023-01-10T03:25:07.898Z,349.00
2023-01-10T03:26:07.879Z,349.00
2023-01-10T03:27:07.846Z,347.00
2023-01-10T03:28:07.819Z,346.00
2023-01-10T03:29:07.807Z,344.00
2023-01-10T03:30:07.778Z,342.00
2023-01-10T03:31:07.776Z,342.00
2023-01-10T03:32:07.740Z,344.00
2023-01-10T03:33:07.728Z,344.00
2023-01-10T03:34:07.706Z,342.00
2023-01-10T03:35:07.693Z,345.00
2023-01-10T03:36:07.723Z,346.00
2023-01-10T03:37:07.667Z,346.00
2023-01-10T03:38:07.657Z,348.00
2023-01-10T03:39:07.629Z,347.00
2023-01-10T03:40:07.602Z,347.00
2023-01-10T03:41:07.597Z,350.00
2023-01-10T03:42:07.580Z,351.00
2023-01-10T03:43:07.568Z,350.00
2023-01-10T03:44:07.542Z,350.00
2023-01-10T03:45:07.528Z,347.00
2023-01-10T03:46:07.503Z,348.00
2023-01-10T03:47:07.500Z,348.00
2023-01-10T03:48:07.486Z,349.00
2023-01-10T03:49:07.469Z,348.00
2023-01-10T03:50:07.447Z,348.00
2023-01-10T03:51:07.441Z,349.00
2023-01-10T03:52:07.419Z,351.00
2023-01-10T03:53:07.409Z,351.00
2023-01-10T03:54:07.395Z,352.00
2023-01-10T03:55:07.392Z,354.00
2023-01-10T03:56:07.365Z,356.00
2023-01-10T03:57:07.347Z,356.00
2023-01-10T03:58:07.346Z,356.00
2023-01-10T03:59:07.334Z,353.00
2023-01-10T04:00:07.316Z,351.00
2023-01-10T04:01:07.365Z,348.00
2023-01-10T04:02:07.380Z,345.00
2023-01-10T04:03:07.257Z,342.00
2023-01-10T04:04:07.282Z,341.00
2023-01-10T04:05:07.226Z,341.00
2023-01-10T04:06:07.203Z,344.00
2023-01-10T04:07:07.205Z,344.00
2023-01-10T04:08:07.171Z,342.00
2023-01-10T04:09:07.162Z,340.00
2023-01-10T04:10:07.136Z,341.00
2023-01-10T04:11:07.151Z,341.00
2023-01-10T04:12:07.110Z,339.00
2023-01-10T04:13:07.098Z,339.00
2023-01-10T04:14:07.069Z,339.00
2023-01-10T04:15:07.075Z,339.00
2023-01-10T04:16:07.056Z,342.00
2023-01-10T04:17:07.025Z,343.00
2023-01-10T04:18:07.001Z,343.00
2023-01-10T04:19:06.984Z,343.00
2023-01-10T04:20:06.988Z,346.00
2023-01-10T04:21:06.946Z,344.00
2023-01-10T04:22:06.921Z,343.00
2023-01-10T04:23:06.905Z,341.00
2023-01-10T04:24:06.880Z,341.00
2023-01-10T04:25:06.853Z,340.00
2023-01-10T04:26:06.832Z,339.00
2023-01-10T04:27:06.829Z,341.00
2023-01-10T04:28:06.789Z,341.00
2023-01-10T04:29:06.779Z,338.00
2023-01-10T04:30:06.744Z,336.00
2023-01-10T04:31:06.770Z,338.00
2023-01-10T04:32:06.703Z,337.00
2023-01-10T04:33:06.691Z,337.00
2023-01-10T04:34:06.673Z,338.00
2023-01-10T04:35:06.663Z,338.00
2023-01-10T04:36:06.823Z,338.00
2023-01-10T04:37:06.643Z,338.00
2023-01-10T04:38:06.620Z,339.00
2023-01-10T04:39:06.594Z,336.00
2023-01-10T04:40:06.583Z,335.00
2023-01-10T04:41:06.563Z,334.00
2023-01-10T04:42:06.561Z,336.00
2023-01-10T04:43:06.534Z,339.00
2023-01-10T04:44:06.512Z,340.00
2023-01-10T04:45:06.514Z,340.00
2023-01-10T04:46:06.516Z,340.00
2023-01-10T04:47:06.451Z,339.00
2023-01-10T04:48:06.483Z,340.00
2023-01-10T04:49:06.408Z,338.00
2023-01-10T04:50:06.389Z,338.00
2023-01-10T04:51:06.379Z,339.00
2023-01-10T04:52:06.355Z,340.00
2023-01-10T04:53:06.355Z,339.00
2023-01-10T04:54:06.324Z,336.00
2023-01-10T04:55:06.297Z,338.00
2023-01-10T04:56:06.291Z,338.00
2023-01-10T04:57:06.272Z,338.00
2023-01-10T04:58:06.256Z,338.00
2023-01-10T04:59:06.230Z,340.00
2023-01-10T05:00:06.198Z,338.00
2023-01-10T05:01:06.301Z,336.00
2023-01-10T05:02:06.246Z,335.00
2023-01-10T05:03:06.288Z,336.00
2023-01-10T05:04:06.133Z,337.00
2023-01-10T05:05:06.255Z,338.00
2023-01-10T05:06:06.087Z,336.00
2023-01-10T05:07:06.708Z,336.00
2023-01-10T05:08:06.040Z,336.00
2023-01-10T05:09:06.022Z,335.00
2023-01-10T05:10:06.002Z,337.00
2023-01-10T05:11:05.989Z,339.00
2023-01-10T05:12:05.973Z,337.00
2023-01-10T05:13:05.941Z,340.00
2023-01-10T05:14:05.925Z,338.00
2023-01-10T05:15:05.904Z,339.00
2023-01-10T05:16:05.877Z,336.00
2023-01-10T05:17:05.854Z,336.00
2023-01-10T05:18:05.847Z,338.00
2023-01-10T05:19:05.814Z,336.00
2023-01-10T05:20:05.802Z,335.00
2023-01-10T05:21:05.791Z,334.00
2023-01-10T05:22:05.768Z,336.00
2023-01-10T05:23:05.739Z,335.00
2023-01-10T05:24:05.759Z,336.00
2023-01-10T05:25:05.831Z,339.00
2023-01-10T05:26:05.698Z,338.00
2023-01-10T05:27:05.679Z,342.00
2023-01-10T05:28:05.653Z,341.00
2023-01-10T05:29:05.643Z,341.00
2023-01-10T05:30:05.650Z,341.00
2023-01-10T05:31:05.601Z,342.00
2023-01-10T05:32:05.580Z,341.00
2023-01-10T05:33:05.556Z,341.00
2023-01-10T05:34:05.712Z,339.00
2023-01-10T05:35:05.517Z,339.00
2023-01-10T05:36:05.499Z,337.00
2023-01-10T05:37:05.478Z,338.00
2023-01-10T05:38:05.464Z,340.00
2023-01-10T05:39:05.467Z,338.00
2023-01-10T05:40:05.425Z,339.00
2023-01-10T05:41:05.400Z,338.00
2023-01-10T05:42:05.388Z,338.00
2023-01-10T05:43:05.361Z,337.00
2023-01-10T05:44:05.336Z,339.00
2023-01-10T05:45:05.321Z,340.00
2023-01-10T05:46:05.386Z,339.00
2023-01-10T05:47:05.274Z,339.00
2023-01-10T05:48:05.248Z,338.00
2023-01-10T05:49:05.234Z,340.00
2023-01-10T05:50:05.248Z,338.00
2023-01-10T05:51:05.212Z,341.00
2023-01-10T05:52:05.174Z,341.00
2023-01-10T05:53:05.147Z,340.00
2023-01-10T05:54:05.144Z,341.00
2023-01-10T05:55:05.251Z,342.00
2023-01-10T05:56:05.091Z,341.00
2023-01-10T05:57:05.073Z,340.00
2023-01-10T05:58:05.066Z,339.00
2023-01-10T05:59:09.577Z,338.00
2023-01-10T06:00:06.029Z,340.00
2023-01-10T06:01:05.068Z,338.00
2023-01-10T06:02:05.010Z,338.00
2023-01-10T06:03:05.004Z,340.00
2023-01-10T06:04:05.110Z,339.00
2023-01-10T06:05:04.946Z,340.00
2023-01-10T06:06:04.916Z,339.00
2023-01-10T06:07:04.891Z,338.00
2023-01-10T06:08:04.873Z,338.00
2023-01-10T06:09:04.864Z,338.00
2023-01-10T06:10:04.839Z,336.00
2023-01-10T06:11:04.822Z,335.00
2023-01-10T06:12:04.799Z,337.00
2023-01-10T06:13:04.788Z,338.00
2023-01-10T06:14:04.767Z,339.00
2023-01-10T06:15:04.757Z,341.00
2023-01-10T06:16:04.746Z,340.00
2023-01-10T06:17:04.734Z,340.00
2023-01-10T06:18:04.684Z,339.00
2023-01-10T06:19:04.659Z,340.00
2023-01-10T06:20:04.648Z,340.00
2023-01-10T06:21:04.614Z,340.00
2023-01-10T06:22:04.596Z,340.00
2023-01-10T06:23:04.620Z,339.00
2023-01-10T06:24:04.548Z,339.00
2023-01-10T06:25:04.551Z,339.00
2023-01-10T06:26:04.507Z,338.00
2023-01-10T06:27:04.505Z,337.00
2023-01-10T06:28:04.478Z,337.00
2023-01-10T06:29:04.451Z,337.00
2023-01-10T06:30:04.440Z,337.00
2023-01-10T06:31:04.456Z,336.00
2023-01-10T06:32:04.397Z,338.00
2023-01-10T06:33:04.521Z,340.00
2023-01-10T06:34:04.374Z,338.00
2023-01-10T06:35:04.333Z,344.00
2023-01-10T06:36:04.324Z,360.00
2023-01-10T06:37:04.297Z,365.00
2023-01-10T06:38:04.278Z,382.00
2023-01-10T06:39:04.265Z,398.00
2023-01-10T06:40:04.448Z,411.00
2023-01-10T06:41:04.219Z,424.00
2023-01-10T06:42:04.223Z,465.00
2023-01-10T06:43:04.198Z,467.00
2023-01-10T06:44:04.155Z,470.00
2023-01-10T06:45:04.133Z,485.00
2023-01-10T06:46:04.152Z,502.00
2023-01-10T06:47:04.095Z,525.00
2023-01-10T06:48:04.069Z,570.00
2023-01-10T06:49:04.032Z,592.00
2023-01-10T06:50:04.009Z,601.00
2023-01-10T06:51:03.993Z,640.00
2023-01-10T06:52:03.950Z,704.00
2023-01-10T06:53:03.933Z,735.00
2023-01-10T06:54:03.898Z,736.00
2023-01-10T06:55:03.865Z,722.00
2023-01-10T06:56:03.846Z,697.00
2023-01-10T06:57:03.809Z,688.00
2023-01-10T06:58:03.803Z,691.00
2023-01-10T06:59:03.756Z,691.00
2023-01-10T07:00:03.738Z,691.00
2023-01-10T07:01:04.024Z,694.00
2023-01-10T07:02:03.833Z,693.00
2023-01-10T07:03:03.658Z,690.00
2023-01-10T07:04:03.691Z,689.00
2023-01-10T07:05:03.594Z,689.00
2023-01-10T07:06:03.577Z,682.00
2023-01-10T07:07:03.540Z,682.00
2023-01-10T07:08:03.511Z,678.00
2023-01-10T07:09:03.491Z,671.00
2023-01-10T07:10:03.472Z,668.00
2023-01-10T07:11:03.457Z,665.00
2023-01-10T07:12:03.430Z,662.00
2023-01-10T07:13:03.398Z,658.00
2023-01-10T07:14:03.383Z,654.00
2023-01-10T07:15:03.356Z,649.00
2023-01-10T07:16:03.423Z,643.00
2023-01-10T07:17:03.334Z,639.00
2023-01-10T07:18:03.293Z,635.00
2023-01-10T07:19:03.271Z,633.00
2023-01-10T07:20:03.254Z,630.00
2023-01-10T07:21:03.233Z,628.00
2023-01-10T07:22:03.208Z,625.00
2023-01-10T07:23:03.202Z,625.00
2023-01-10T07:24:03.204Z,624.00
2023-01-10T07:25:03.129Z,622.00
2023-01-10T07:26:03.104Z,617.00
2023-01-10T07:27:03.099Z,612.00
2023-01-10T07:28:03.078Z,609.00
2023-01-10T07:29:03.039Z,607.00
2023-01-10T07:30:03.121Z,600.00
2023-01-10T07:31:03.108Z,597.00
2023-01-10T07:32:02.978Z,597.00
2023-01-10T07:33:02.935Z,597.00
2023-01-10T07:34:02.912Z,598.00
2023-01-10T07:35:02.901Z,593.00
2023-01-10T07:36:02.871Z,593.00
2023-01-10T07:37:02.841Z,591.00
2023-01-10T07:38:02.814Z,590.00
2023-01-10T07:39:02.785Z,591.00
2023-01-10T07:40:02.778Z,589.00
2023-01-10T07:41:02.741Z,586.00
2023-01-10T07:42:02.712Z,585.00
2023-01-10T07:43:02.708Z,582.00
2023-01-10T07:44:02.666Z,581.00
2023-01-10T07:45:02.655Z,629.00
2023-01-10T07:46:02.689Z,651.00
2023-01-10T07:47:02.595Z,748.00
2023-01-10T07:48:02.568Z,809.00
2023-01-10T07:49:02.553Z,845.00
2023-01-10T07:50:02.531Z,870.00
2023-01-10T07:51:02.492Z,900.00
2023-01-10T07:52:02.483Z,933.00
2023-01-10T07:53:02.446Z,960.00
2023-01-10T07:54:02.416Z,968.00
2023-01-10T07:55:02.395Z,994.00
2023-01-10T07:56:02.378Z,1035.00
2023-01-10T07:57:02.346Z,1063.00
2023-01-10T07:58:02.331Z,1077.00
2023-01-10T07:59:02.285Z,1085.00
2023-01-10T08:00:02.278Z,1099.00
2023-01-10T08:01:02.369Z,1126.00
2023-01-10T08:02:02.207Z,1161.00
2023-01-10T08:03:02.423Z,1181.00
2023-01-10T08:04:02.167Z,1187.00
2023-01-10T08:05:02.115Z,1201.00
2023-01-10T08:06:02.099Z,1249.00
2023-01-10T08:07:02.073Z,1268.00
2023-01-10T08:08:02.052Z,1279.00
2023-01-10T08:09:02.004Z,1288.00
2023-01-10T08:10:01.977Z,1297.00
2023-01-10T08:11:01.940Z,1319.00
2023-01-10T08:12:01.911Z,1333.00
2023-01-10T08:13:17.111Z,1340.00
2023-01-10T08:17:01.753Z,1408.00
2023-01-10T08:18:04.656Z,1418.00
2023-01-10T08:19:01.686Z,1427.00
2023-01-10T08:20:01.656Z,1437.00
2023-01-10T08:21:01.608Z,1458.00
2023-01-10T08:22:01.585Z,1466.00
2023-01-10T08:23:01.545Z,1468.00
2023-01-10T08:24:01.530Z,1484.00
2023-01-10T08:25:01.489Z,1508.00
2023-01-10T08:26:01.488Z,1525.00
2023-01-10T08:27:01.414Z,1540.00
2023-01-10T08:29:01.357Z,1576.00
2023-01-10T08:35:01.162Z,1633.00
2023-01-10T08:36:01.120Z,1641.00
2023-01-10T08:37:01.096Z,1683.00
2023-01-10T08:38:01.072Z,1744.00
2023-01-10T08:39:01.029Z,1762.00
2023-01-10T08:40:00.992Z,1699.00
2023-01-10T08:41:00.947Z,1233.00
2023-01-10T08:42:00.930Z,1077.00
2023-01-10T08:43:00.859Z,1037.00
2023-01-10T08:44:00.844Z,925.00
2023-01-10T08:45:00.810Z,829.00
2023-01-10T08:46:00.799Z,737.00
2023-01-10T08:47:00.760Z,672.00
2023-01-10T08:48:00.756Z,662.00
2023-01-10T08:49:00.743Z,681.00
2023-01-10T08:50:00.714Z,695.00
2023-01-10T08:51:01.179Z,606.00
2023-01-10T08:52:00.679Z,709.00
2023-01-10T08:53:00.672Z,609.00
2023-01-10T08:54:00.655Z,575.00
2023-01-10T08:55:00.648Z,584.00
2023-01-10T08:56:00.637Z,673.00
2023-01-10T08:57:00.614Z,751.00
2023-01-10T08:58:00.594Z,802.00
2023-01-10T08:59:00.576Z,824.00
2023-01-10T09:00:00.559Z,846.00
2023-01-10T09:01:00.570Z,884.00
2023-01-10T09:02:00.540Z,916.00
2023-01-10T09:03:00.554Z,976.00
2023-01-10T09:04:00.489Z,1018.00
2023-01-10T09:05:00.467Z,1046.00
2023-01-10T09:06:00.448Z,1089.00
2023-01-10T09:07:00.412Z,1086.00
2023-01-10T09:08:00.548Z,1092.00
2023-01-10T09:09:00.348Z,1136.00
2023-01-10T09:10:00.301Z,1150.00
2023-01-10T09:11:00.300Z,1168.00
2023-01-10T09:12:00.253Z,1171.00
2023-01-10T09:13:00.226Z,1185.00
2023-01-10T09:14:00.202Z,1207.00
2023-01-10T09:15:00.168Z,1247.00
2023-01-10T09:16:00.165Z,1266.00
2023-01-10T09:17:00.101Z,1267.00
2023-01-10T09:18:00.086Z,1262.00
2023-01-10T09:19:00.035Z,1323.00
2023-01-10T09:20:00.009Z,1338.00
2023-01-10T09:20:59.965Z,1354.00
2023-01-10T09:21:59.931Z,1371.00
2023-01-10T09:22:59.905Z,1404.00
2023-01-10T09:23:59.875Z,1387.00
2023-01-10T09:24:59.844Z,1406.00
2023-01-10T09:25:59.808Z,1446.00
2023-01-10T09:26:59.781Z,1428.00
2023-01-10T09:27:59.761Z,1131.00
2023-01-10T09:28:59.738Z,1021.00
2023-01-10T09:29:59.686Z,1111.00
2023-01-10T09:30:59.695Z,930.00
2023-01-10T09:31:59.639Z,1144.00
2023-01-10T09:32:59.614Z,1148.00
2023-01-10T09:33:59.597Z,1087.00
2023-01-10T09:34:59.562Z,1071.00
2023-01-10T09:35:59.516Z,926.00
2023-01-10T09:36:59.532Z,875.00
2023-01-10T09:37:59.457Z,866.00
2023-01-10T09:38:59.443Z,880.00
2023-01-10T09:39:59.461Z,874.00
2023-01-10T09:40:59.376Z,847.00
2023-01-10T09:41:59.358Z,799.00
2023-01-10T09:42:59.364Z,795.00
2023-01-10T09:44:01.084Z,786.00
2023-01-10T09:44:59.279Z,782.00
2023-01-10T09:45:59.251Z,743.00
2023-01-10T09:46:59.903Z,701.00
2023-01-10T09:47:59.194Z,712.00
2023-01-10T09:48:59.189Z,724.00
2023-01-10T09:49:59.170Z,749.00
2023-01-10T09:50:59.143Z,879.00
2023-01-10T09:51:59.431Z,893.00
2023-01-10T09:52:59.100Z,902.00
2023-01-10T09:54:10.767Z,951.00
2023-01-10T09:55:00.068Z,966.00
2023-01-10T09:55:59.057Z,983.00
2023-01-10T09:56:59.024Z,1070.00
2023-01-10T09:57:59.009Z,1078.00
2023-01-10T09:58:58.984Z,1137.00
2023-01-10T09:59:58.954Z,1147.00
2023-01-10T10:00:58.941Z,1155.00
2023-01-10T10:01:58.895Z,1174.00
2023-01-10T10:02:58.940Z,1193.00
2023-01-10T10:03:58.893Z,1264.00
2023-01-10T10:04:58.820Z,1249.00
2023-01-10T10:06:11.176Z,1247.00
2023-01-10T10:06:59.831Z,1308.00
2023-01-10T10:07:58.738Z,1314.00
2023-01-10T10:08:58.718Z,1322.00
2023-01-10T10:09:58.693Z,1357.00
2023-01-10T10:10:58.680Z,1337.00
2023-01-10T10:11:58.642Z,1324.00
2023-01-10T10:12:58.611Z,1350.00
2023-01-10T10:13:58.588Z,1380.00
2023-01-10T10:14:58.579Z,1414.00
2023-01-10T10:15:59.916Z,1419.00
2023-01-10T10:16:58.535Z,1420.00
2023-01-10T10:17:58.500Z,1433.00
2023-01-10T10:18:58.482Z,1445.00
2023-01-10T10:19:58.447Z,1461.00
2023-01-10T10:20:58.416Z,1464.00
2023-01-10T10:21:58.406Z,1477.00
2023-01-10T10:22:58.380Z,1475.00
2023-01-10T10:23:58.329Z,1478.00
2023-01-10T10:24:58.334Z,1511.00
2023-01-10T10:25:58.295Z,1537.00
2023-01-10T10:26:58.253Z,1548.00
2023-01-10T10:27:58.229Z,1550.00
2023-01-10T10:28:58.195Z,1550.00
2023-01-10T10:29:58.170Z,1538.00
2023-01-10T10:30:58.135Z,1609.00
2023-01-10T10:31:58.100Z,1632.00
2023-01-10T10:32:58.071Z,1632.00
2023-01-10T10:33:58.037Z,1621.00
2023-01-10T10:34:58.023Z,1532.00
2023-01-10T10:35:58.002Z,1530.00
2023-01-10T10:36:57.937Z,1623.00
2023-01-10T10:37:57.912Z,1639.00
2023-01-10T10:38:57.877Z,1647.00
2023-01-10T10:39:57.845Z,1644.00
2023-01-10T10:40:57.813Z,1582.00
2023-01-10T10:41:57.778Z,1608.00
2023-01-10T10:42:57.757Z,1706.00
2023-01-10T10:43:57.751Z,1692.00
2023-01-10T10:44:57.711Z,1685.00
2023-01-10T10:45:57.694Z,1653.00
2023-01-10T10:46:57.616Z,1556.00
2023-01-10T10:47:57.587Z,1574.00
2023-01-10T10:48:57.560Z,1582.00
2023-01-10T10:49:57.533Z,1571.00
2023-01-10T10:50:57.520Z,1487.00
2023-01-10T10:51:57.467Z,1405.00
2023-01-10T10:52:57.443Z,1378.00
2023-01-10T10:53:57.430Z,1368.00
2023-01-10T10:54:57.375Z,1375.00
2023-01-10T10:55:57.348Z,1280.00
2023-01-10T10:56:57.315Z,1235.00
2023-01-10T10:58:00.362Z,1186.00
2023-01-10T10:58:57.265Z,1164.00
2023-01-10T10:59:57.247Z,1161.00
2023-01-10T11:00:57.312Z,1198.00
2023-01-10T11:01:57.325Z,1063.00
2023-01-10T11:02:57.169Z,1027.00
2023-01-10T11:03:57.149Z,971.00
2023-01-10T11:04:57.161Z,972.00
2023-01-10T11:05:57.108Z,983.00
2023-01-10T11:06:57.068Z,992.00
2023-01-10T11:07:57.132Z,962.00
2023-01-10T11:08:57.022Z,935.00
2023-01-10T11:09:57.000Z,927.00
2023-01-10T11:10:57.000Z,928.00
2023-01-10T11:11:56.943Z,926.00
2023-01-10T11:12:56.913Z,923.00
2023-01-10T11:13:56.900Z,912.00
2023-01-10T11:14:56.878Z,903.00
2023-01-10T11:15:56.847Z,895.00
2023-01-10T11:16:56.813Z,880.00
2023-01-10T11:17:56.793Z,881.00
2023-01-10T11:18:56.764Z,875.00
2023-01-10T11:19:56.737Z,864.00
2023-01-10T11:20:56.715Z,852.00
2023-01-10T11:21:56.699Z,844.00
2023-01-10T11:22:56.672Z,838.00
2023-01-10T11:23:56.651Z,841.00
2023-01-10T11:24:56.645Z,835.00
2023-01-10T11:25:56.640Z,824.00
2023-01-10T11:26:56.601Z,813.00
2023-01-10T11:27:56.576Z,810.00
2023-01-10T11:28:56.553Z,811.00
2023-01-10T11:29:56.533Z,811.00
2023-01-10T11:30:56.504Z,808.00
2023-01-10T11:31:56.565Z,802.00
2023-01-10T11:32:56.461Z,794.00
2023-01-10T11:33:56.444Z,791.00
2023-01-10T11:34:56.417Z,794.00
2023-01-10T11:35:56.404Z,795.00
2023-01-10T11:36:56.380Z,788.00
2023-01-10T11:37:56.370Z,783.00
2023-01-10T11:38:56.333Z,778.00
2023-01-10T11:39:56.318Z,776.00
2023-01-10T11:40:56.290Z,777.00
2023-01-10T11:41:56.259Z,775.00
2023-01-10T11:42:58.894Z,760.00
2023-01-10T11:43:56.221Z,757.00
2023-01-10T11:44:56.199Z,755.00
2023-01-10T11:45:56.209Z,753.00
2023-01-10T11:46:56.157Z,754.00
2023-01-10T11:47:56.141Z,755.00
2023-01-10T11:49:05.649Z,750.00
2023-01-10T11:50:56.076Z,745.00
2023-01-10T11:51:56.063Z,749.00
2023-01-10T11:52:56.043Z,747.00
2023-01-10T11:53:56.018Z,744.00
2023-01-10T11:54:58.328Z,740.00
2023-01-10T11:55:56.080Z,735.00
2023-01-10T11:56:56.034Z,734.00
2023-01-10T11:57:55.987Z,736.00
2023-01-10T11:58:55.970Z,734.00
2023-01-10T11:59:55.947Z,728.00
2023-01-10T12:00:58.084Z,724.00
2023-01-10T12:01:55.923Z,718.00
2023-01-10T12:02:55.870Z,722.00
2023-01-10T12:03:55.854Z,728.00
2023-01-10T12:04:55.883Z,725.00
2023-01-10T12:05:55.836Z,720.00
2023-01-10T12:06:55.812Z,717.00
2023-01-10T12:07:55.756Z,717.00
2023-01-10T12:08:55.732Z,719.00
2023-01-10T12:09:55.717Z,719.00
2023-01-10T12:10:55.690Z,714.00
2023-01-10T12:11:55.660Z,710.00
2023-01-10T12:12:55.648Z,705.00
2023-01-10T12:13:55.615Z,704.00
2023-01-10T12:14:55.607Z,704.00
2023-01-10T12:15:55.564Z,704.00
2023-01-10T12:16:55.604Z,701.00
2023-01-10T12:17:55.535Z,696.00
2023-01-10T12:18:55.517Z,696.00
2023-01-10T12:19:55.510Z,696.00
2023-01-10T12:20:55.460Z,693.00
2023-01-10T12:21:55.430Z,693.00
2023-01-10T12:22:57.652Z,690.00
2023-01-10T12:23:55.383Z,687.00
2023-01-10T12:24:55.357Z,686.00
2023-01-10T12:26:10.785Z,682.00
2023-01-10T12:27:55.270Z,677.00
2023-01-10T12:28:56.763Z,672.00
2023-01-10T12:29:55.212Z,672.00
2023-01-10T12:30:55.218Z,672.00
2023-01-10T12:31:55.145Z,672.00
2023-01-10T12:32:55.125Z,672.00
2023-01-10T12:33:55.101Z,671.00
2023-01-10T12:34:57.115Z,671.00
2023-01-10T12:35:55.050Z,670.00
2023-01-10T12:36:55.020Z,668.00
2023-01-10T12:37:54.985Z,669.00
2023-01-10T12:38:54.970Z,669.00
2023-01-10T12:39:54.941Z,666.00
2023-01-10T12:40:56.379Z,665.00
2023-01-10T12:41:54.947Z,664.00
2023-01-10T12:42:54.915Z,664.00
2023-01-10T12:43:54.882Z,665.00
2023-01-10T12:44:54.855Z,667.00
2023-01-10T12:45:54.831Z,671.00
2023-01-10T14:16:52.627Z,631.00
2023-01-10T14:17:52.609Z,629.00
2023-01-10T14:18:52.580Z,631.00
2023-01-10T14:19:52.553Z,631.00
2023-01-10T14:20:52.523Z,634.00
2023-01-10T14:21:52.498Z,631.00
2023-01-10T14:22:52.489Z,633.00
2023-01-10T14:23:52.459Z,633.00
2023-01-10T14:24:52.433Z,634.00
2023-01-10T14:25:52.410Z,636.00
2023-01-10T14:26:52.377Z,637.00
2023-01-10T14:27:52.360Z,635.00
2023-01-10T14:28:52.337Z,632.00
2023-01-10T14:29:52.326Z,634.00
2023-01-10T14:30:52.298Z,632.00
2023-01-10T14:31:52.268Z,632.00
2023-01-10T14:32:52.265Z,631.00
2023-01-10T14:33:52.232Z,630.00
2023-01-10T14:34:52.191Z,631.00
2023-01-10T14:35:52.184Z,631.00
2023-01-10T14:36:52.149Z,630.00
2023-01-10T14:37:52.131Z,630.00
2023-01-10T14:38:52.103Z,630.00
2023-01-10T14:39:52.087Z,630.00
2023-01-10T14:40:52.059Z,627.00
2023-01-10T14:41:52.038Z,627.00
2023-01-10T14:42:52.003Z,627.00
2023-01-10T14:43:51.994Z,629.00
2023-01-10T14:44:51.956Z,630.00
2023-01-10T15:16:51.137Z,613.00
2023-01-10T15:58:49.984Z,588.00
2023-01-10T15:59:49.965Z,586.00
2023-01-10T16:00:49.962Z,587.00
2023-01-10T16:01:50.058Z,587.00
2023-01-10T16:02:50.044Z,587.00
2023-01-10T16:03:50.001Z,586.00
2023-01-10T16:04:49.821Z,586.00
2023-01-10T16:05:49.794Z,585.00
2023-01-10T16:06:49.756Z,581.00
2023-01-10T16:07:49.729Z,580.00
2023-01-10T16:08:49.693Z,580.00
2023-01-10T16:09:49.666Z,579.00
2023-01-10T16:10:49.633Z,580.00
2023-01-10T16:11:49.611Z,580.00
2023-01-10T16:12:49.574Z,584.00
2023-01-10T16:13:49.546Z,581.00
2023-01-10T16:14:49.511Z,581.00
2023-01-10T16:15:49.490Z,581.00
2023-01-10T16:16:49.459Z,579.00
2023-01-10T16:17:49.434Z,578.00
2023-01-10T16:18:49.405Z,577.00
2023-01-10T16:19:49.369Z,576.00
2023-01-10T16:20:49.340Z,577.00
2023-01-10T16:21:49.312Z,577.00
2023-01-10T16:22:49.284Z,574.00
2023-01-10T16:23:49.246Z,572.00
2023-01-10T16:24:49.223Z,574.00
2023-01-10T16:25:49.190Z,574.00
2023-01-10T16:26:49.190Z,575.00
2023-01-10T16:27:49.173Z,574.00
2023-01-10T16:28:49.101Z,576.00
2023-01-10T16:29:49.106Z,576.00
2023-01-10T16:30:49.042Z,575.00
2023-01-10T16:31:49.057Z,574.00
2023-01-10T16:32:48.982Z,574.00
2023-01-10T16:33:48.950Z,572.00
2023-01-10T16:34:48.910Z,571.00
2023-01-10T16:35:48.884Z,571.00
2023-01-10T16:36:48.847Z,573.00
2023-01-10T16:37:48.826Z,573.00
2023-01-10T16:38:48.792Z,572.00
2023-01-10T16:39:48.764Z,570.00
2023-01-10T16:40:48.746Z,572.00
2023-01-10T16:41:48.720Z,570.00
2023-01-10T16:42:48.692Z,571.00
2023-01-10T16:43:48.658Z,569.00
2023-01-10T16:44:48.630Z,569.00
2023-01-10T16:45:48.616Z,569.00
2023-01-10T16:46:48.579Z,569.00
2023-01-10T16:47:48.562Z,569.00
2023-01-10T16:48:48.515Z,571.00
2023-01-10T16:49:48.495Z,572.00
2023-01-10T16:50:48.469Z,571.00
2023-01-10T16:51:48.451Z,571.00
2023-01-10T16:52:48.417Z,570.00
2023-01-10T16:53:48.425Z,567.00
2023-01-10T16:54:48.356Z,565.00
2023-01-10T16:55:48.330Z,563.00
2023-01-10T16:56:48.301Z,563.00
2023-01-10T16:57:48.270Z,565.00
2023-01-10T16:58:48.237Z,565.00
2023-01-10T16:59:48.213Z,563.00
2023-01-10T17:00:48.251Z,562.00
2023-01-10T17:01:48.290Z,564.00
2023-01-10T17:02:48.114Z,563.00
2023-01-10T17:03:48.242Z,566.00
2023-01-10T17:04:48.049Z,568.00
2023-01-10T17:05:48.026Z,566.00
2023-01-10T17:06:48.000Z,565.00
2023-01-10T17:07:47.992Z,564.00
2023-01-10T17:08:47.944Z,560.00
2023-01-10T17:09:47.929Z,555.00
2023-01-10T17:10:47.891Z,551.00
2023-01-10T17:11:47.858Z,549.00
2023-01-10T17:12:47.827Z,549.00
2023-01-10T17:13:47.810Z,546.00
2023-01-10T17:14:47.767Z,547.00
2023-01-10T17:15:47.757Z,545.00
2023-01-10T17:16:47.767Z,546.00
2023-01-10T17:17:47.686Z,548.00
2023-01-10T17:18:47.661Z,546.00
2023-01-10T17:19:47.642Z,548.00
2023-01-10T17:20:47.600Z,546.00
2023-01-10T17:21:47.575Z,548.00
2023-01-10T17:22:47.543Z,548.00
2023-01-10T17:23:47.544Z,549.00
2023-01-10T17:24:47.501Z,550.00
2023-01-10T17:25:47.459Z,547.00
2023-01-10T17:26:47.434Z,549.00